37 Rocks — ZM3003 — position and weather

sailwx.info

Track history (hours):
 
Tides and Currents Weather Stations Pressure Air Temp Water Temp Dewpoint Dewpoint Depression Visibility Wind Speed Wind Dir Waves Ship Positions

37 Rocks

Last reported at 2016-Jul-15 13:12 UTC. Time now 2016-Jul-29 05:57 UTC.
Position N 37°42' E 023°55'.
Warning: this ship's position is 13 days out of date.

Length 17 m.

Type: Sailing vessel. MMSI: 512003230.

Date/timePositionNaut miles runAvg speedWind from/ knotsBaromVisibWave heightAir tempDewpointWater temp
2016-Jul-15 13:12N 37°42' E 023°55'5 7.4
2016-Jul-15 12:33N 37°41' E 023°49'8 7.8
2016-Jul-15 11:33N 37°40' E 023°40'7 6.7
2016-Jul-15 10:33N 37°40' E 023°31'6 6.0
2016-Jul-15 09:33N 37°44' E 023°25'1 0.0
2016-Jul-14 15:31N 37°45' E 023°26'0 0.0
2016-Jul-14 14:31N 37°45' E 023°26'0 0.0
2016-Jul-14 13:28N 37°45' E 023°26'0 0.0
2016-Jul-14 12:25N 37°45' E 023°26'0 0.0
2016-Jul-14 10:07N 37°45' E 023°26'4 6.3
2016-Jul-14 09:33N 37°41' E 023°25'7 7.1
2016-Jul-14 08:32N 37°34' E 023°26'3 0.1
2016-Jul-12 09:33N 37°37' E 023°25'11 0.2
2016-Jul-10 09:18N 37°45' E 023°16'5 7.0
2016-Jul-10 08:33N 37°45' E 023°23'  
2016-Jul-07 15:04N 37°40' E 023°29'4 7.7
2016-Jul-07 14:33N 37°39' E 023°34'7 7.3
2016-Jul-07 13:32N 37°37' E 023°43'57 2.6
2016-Jul-06 15:13N 37°15' E 024°50'5 7.9
2016-Jul-06 14:34N 37°12' E 024°55'8 7.8
2016-Jul-06 13:33N 37°08' E 025°03'  
Track history (hours):
 
Tides and Currents Weather Stations Pressure Air Temp Water Temp Dewpoint Dewpoint Depression Visibility Wind Speed Wind Dir Waves Ship Positions

37 Rocks

Last reported at 2016-Jul-15 13:12 UTC. Time now 2016-Jul-29 05:57 UTC.
Position N 37°42' E 023°55'.
Warning: this ship's position is 13 days out of date.

Length 17 m.

Type: Sailing vessel. MMSI: 512003230.

Date/timePositionNaut miles runAvg speedWind from/ knotsBaromVisibWave heightAir tempDewpointWater temp
2016-Jul-15 13:12N 37°42' E 023°55'5 7.4
2016-Jul-15 12:33N 37°41' E 023°49'8 7.8
2016-Jul-15 11:33N 37°40' E 023°40'7 6.7
2016-Jul-15 10:33N 37°40' E 023°31'6 6.0
2016-Jul-15 09:33N 37°44' E 023°25'1 0.0
2016-Jul-14 15:31N 37°45' E 023°26'0 0.0
2016-Jul-14 14:31N 37°45' E 023°26'0 0.0
2016-Jul-14 13:28N 37°45' E 023°26'0 0.0
2016-Jul-14 12:25N 37°45' E 023°26'0 0.0
2016-Jul-14 10:07N 37°45' E 023°26'4 6.3
2016-Jul-14 09:33N 37°41' E 023°25'7 7.1
2016-Jul-14 08:32N 37°34' E 023°26'3 0.1
2016-Jul-12 09:33N 37°37' E 023°25'11 0.2
2016-Jul-10 09:18N 37°45' E 023°16'5 7.0
2016-Jul-10 08:33N 37°45' E 023°23'  
2016-Jul-07 15:04N 37°40' E 023°29'4 7.7
2016-Jul-07 14:33N 37°39' E 023°34'7 7.3
2016-Jul-07 13:32N 37°37' E 023°43'57 2.6
2016-Jul-06 15:13N 37°15' E 024°50'5 7.9
2016-Jul-06 14:34N 37°12' E 024°55'8 7.8
2016-Jul-06 13:33N 37°08' E 025°03'  

Dump ship's entire track history